createdAt,value
2018-08-09T00:00:25.801Z,20.79
2018-08-09T00:02:53.272Z,21.07
2018-08-09T00:05:21.135Z,21.26
2018-08-09T00:07:48.543Z,21.02
2018-08-09T00:10:17.391Z,20.96
2018-08-09T00:12:44.755Z,20.82
2018-08-09T00:15:12.102Z,20.65
2018-08-09T00:17:39.501Z,20.49
2018-08-09T00:20:07.047Z,20.37
2018-08-09T00:22:34.367Z,20.84
2018-08-09T00:25:01.717Z,21.07
2018-08-09T00:27:29.148Z,21.19
2018-08-09T00:29:56.682Z,21.16
2018-08-09T00:32:24.130Z,20.61
2018-08-09T00:34:51.429Z,20.65
2018-08-09T00:37:18.638Z,20.80
2018-08-09T00:39:45.867Z,20.90
2018-08-09T00:42:13.111Z,20.65
2018-08-09T00:44:40.714Z,20.48
2018-08-09T00:47:08.056Z,20.71
2018-08-09T00:49:35.347Z,20.55
2018-08-09T00:52:02.552Z,20.27
2018-08-09T00:54:29.829Z,20.23
2018-08-09T00:56:56.997Z,20.08
2018-08-09T00:59:24.216Z,20.06
2018-08-09T01:01:51.429Z,20.01
2018-08-09T01:04:19.018Z,20.20
2018-08-09T01:06:46.414Z,19.78
2018-08-09T01:09:14.321Z,19.69
2018-08-09T01:11:41.564Z,19.95
2018-08-09T01:14:08.833Z,20.22
2018-08-09T01:16:36.170Z,20.48
2018-08-09T01:19:03.544Z,20.01
2018-08-09T01:21:30.884Z,19.64
2018-08-09T01:23:58.405Z,19.71
2018-08-09T01:26:25.674Z,19.84
2018-08-09T01:28:52.931Z,20.23
2018-08-09T01:31:27.904Z,20.27
2018-08-09T01:33:55.162Z,20.46
2018-08-09T01:36:22.773Z,20.53
2018-08-09T01:38:50.034Z,20.38
2018-08-09T01:41:17.337Z,20.27
2018-08-09T01:43:51.918Z,20.50
2018-08-09T01:46:19.124Z,20.31
2018-08-09T01:48:46.733Z,20.02
2018-08-09T01:51:14.058Z,19.73
2018-08-09T01:53:41.380Z,19.62
2018-08-09T01:56:08.620Z,19.63
2018-08-09T01:58:35.875Z,19.77
2018-08-09T02:01:03.114Z,20.03
2018-08-09T02:03:30.526Z,20.41
2018-08-09T02:05:57.735Z,20.07
2018-08-09T02:08:24.966Z,19.96
2018-08-09T02:10:52.578Z,19.71
2018-08-09T02:13:19.897Z,19.46
2018-08-09T02:15:47.123Z,19.82
2018-08-09T02:18:14.476Z,19.84
2018-08-09T02:20:42.003Z,19.91
2018-08-09T02:23:09.268Z,20.02
2018-08-09T02:25:36.489Z,19.55
2018-08-09T02:28:03.740Z,19.42
2018-08-09T02:30:30.982Z,19.59
2018-08-09T02:32:58.253Z,18.71
2018-08-09T02:35:25.465Z,19.01
2018-08-09T02:37:52.689Z,19.38
2018-08-09T02:40:20.094Z,19.60
2018-08-09T02:42:47.348Z,19.35
2018-08-09T02:45:14.554Z,19.11
2018-08-09T02:47:41.770Z,19.38
2018-08-09T02:50:09.042Z,19.41
2018-08-09T02:52:36.395Z,19.59
2018-08-09T02:55:03.818Z,19.73
2018-08-09T02:57:31.053Z,19.91
2018-08-09T02:59:58.276Z,19.22
2018-08-09T03:02:25.505Z,18.80
2018-08-09T03:04:52.737Z,18.61
2018-08-09T03:07:19.925Z,18.84
2018-08-09T03:09:47.612Z,19.11
2018-08-09T03:12:14.872Z,19.26
2018-08-09T03:14:42.120Z,19.52
2018-08-09T03:17:09.670Z,19.33
2018-08-09T03:19:36.813Z,19.43
2018-08-09T03:22:04.062Z,19.12
2018-08-09T03:24:31.399Z,19.27
2018-08-09T03:26:58.593Z,19.28
2018-08-09T03:29:25.869Z,19.27
2018-08-09T03:31:53.414Z,19.30
2018-08-09T03:34:20.864Z,19.35
2018-08-09T03:36:48.136Z,19.37
2018-08-09T03:39:15.341Z,19.33
2018-08-09T03:41:42.525Z,19.14
2018-08-09T03:44:09.726Z,18.85
2018-08-09T03:46:37.009Z,18.32
2018-08-09T03:49:04.308Z,18.77
2018-08-09T03:51:31.700Z,18.75
2018-08-09T03:53:58.948Z,18.76
2018-08-09T03:56:26.125Z,18.91
2018-08-09T03:58:53.325Z,18.52
2018-08-09T04:01:20.569Z,18.50
2018-08-09T04:03:48.086Z,17.95
2018-08-09T04:06:15.339Z,18.36
2018-08-09T04:08:42.558Z,18.23
2018-08-09T04:11:09.877Z,17.75
2018-08-09T04:13:37.116Z,18.22
2018-08-09T04:16:04.513Z,18.36
2018-08-09T04:18:32.009Z,18.35
2018-08-09T04:20:59.553Z,17.38
2018-08-09T04:23:26.853Z,18.75
2018-08-09T04:25:54.143Z,18.85
2018-08-09T04:28:21.320Z,19.00
2018-08-09T04:30:48.614Z,19.15
2018-08-09T04:33:15.849Z,19.10
2018-08-09T04:35:43.097Z,19.15
2018-08-09T04:38:10.278Z,19.17
2018-08-09T04:40:37.512Z,18.81
2018-08-09T04:43:04.805Z,18.48
2018-08-09T04:45:32.034Z,18.57
2018-08-09T04:47:59.260Z,18.46
2018-08-09T04:50:26.538Z,18.94
2018-08-09T04:52:54.001Z,18.94
2018-08-09T04:55:21.257Z,19.02
2018-08-09T04:57:48.473Z,18.50
2018-08-09T05:00:15.769Z,18.63
2018-08-09T05:02:43.044Z,18.73
2018-08-09T05:05:10.229Z,18.98
2018-08-09T05:07:37.540Z,19.32
2018-08-09T05:10:10.784Z,19.41
2018-08-09T05:12:39.308Z,19.71
2018-08-09T05:15:06.544Z,19.78
2018-08-09T05:17:34.231Z,19.93
2018-08-09T05:20:01.785Z,19.70
2018-08-09T05:22:28.989Z,19.84
2018-08-09T05:24:56.314Z,19.66
2018-08-09T05:27:23.577Z,19.68
2018-08-09T05:29:50.837Z,19.93
2018-08-09T05:32:18.029Z,20.20
2018-08-09T05:34:45.606Z,20.41
2018-08-09T05:37:12.787Z,20.60
2018-08-09T05:39:40.026Z,20.73
2018-08-09T05:42:07.233Z,20.86
2018-08-09T05:44:34.473Z,20.91
2018-08-09T05:47:01.661Z,20.89
2018-08-09T05:49:29.326Z,21.20
2018-08-09T05:51:56.572Z,21.42
2018-08-09T05:54:23.837Z,21.67
2018-08-09T05:56:51.051Z,21.77
2018-08-09T05:59:18.229Z,22.20
2018-08-09T06:01:45.869Z,22.40
2018-08-09T06:04:13.235Z,22.62
2018-08-09T06:06:40.416Z,22.74
2018-08-09T06:09:09.509Z,22.93
2018-08-09T06:11:36.708Z,23.14
2018-08-09T06:14:03.944Z,23.36
2018-08-09T06:16:31.182Z,23.57
2018-08-09T06:18:58.456Z,23.74
2018-08-09T06:21:25.584Z,23.92
2018-08-09T06:23:52.817Z,24.04
2018-08-09T06:26:20.133Z,24.06
2018-08-09T06:28:47.385Z,24.22
2018-08-09T06:31:14.525Z,24.34
2018-08-09T06:33:41.737Z,24.41
2018-08-09T06:36:08.992Z,24.55
2018-08-09T06:38:36.216Z,24.56
2018-08-09T06:41:03.532Z,24.76
2018-08-09T06:43:30.812Z,24.83
2018-08-09T06:45:58.033Z,25.03
2018-08-09T06:48:25.567Z,24.87
2018-08-09T06:50:52.862Z,25.01
2018-08-09T06:53:20.081Z,24.98
2018-08-09T06:55:47.488Z,25.37
2018-08-09T06:58:14.710Z,25.76
2018-08-09T07:00:41.982Z,25.83
2018-08-09T07:03:09.221Z,25.90
2018-08-09T07:05:36.492Z,25.99
2018-08-09T07:08:03.723Z,25.81
2018-08-09T07:10:30.995Z,26.00
2018-08-09T07:12:58.231Z,26.10
2018-08-09T07:15:25.498Z,26.00
2018-08-09T07:17:52.941Z,25.99
2018-08-09T07:20:20.255Z,26.37
2018-08-09T07:22:47.489Z,26.43
2018-08-09T07:25:14.844Z,26.53
2018-08-09T07:27:42.045Z,26.83
2018-08-09T07:30:10.994Z,26.87
2018-08-09T07:32:38.357Z,27.07
2018-08-09T07:35:06.096Z,27.04
2018-08-09T07:37:33.311Z,26.97
2018-08-09T07:40:00.528Z,26.78
2018-08-09T07:42:27.766Z,26.98
2018-08-09T07:44:54.973Z,27.44
2018-08-09T07:47:22.252Z,27.95
2018-08-09T07:49:49.478Z,27.89
2018-08-09T07:52:16.881Z,27.84
2018-08-09T07:54:44.054Z,27.84
2018-08-09T07:57:11.299Z,27.74
2018-08-09T07:59:38.490Z,27.80
2018-08-09T08:02:05.649Z,28.03
2018-08-09T08:04:32.944Z,28.45
2018-08-09T08:07:00.374Z,28.96
2018-08-09T08:09:27.682Z,29.05
2018-08-09T08:11:54.865Z,29.40
2018-08-09T08:14:22.086Z,29.05
2018-08-09T08:16:49.375Z,28.89
2018-08-09T08:19:16.620Z,28.65
2018-08-09T08:21:43.899Z,28.54
2018-08-09T08:24:11.121Z,28.38
2018-08-09T08:26:38.354Z,28.67
2018-08-09T08:29:05.576Z,28.70
2018-08-09T08:31:32.834Z,28.63
2018-08-09T08:34:00.177Z,28.71
2018-08-09T08:36:27.391Z,28.80
2018-08-09T08:38:54.607Z,28.90
2018-08-09T08:41:21.919Z,28.87
2018-08-09T08:43:49.125Z,28.80
2018-08-09T08:46:16.348Z,28.91
2018-08-09T08:48:43.574Z,28.95
2018-08-09T08:51:10.776Z,29.44
2018-08-09T08:53:37.988Z,29.55
2018-08-09T08:56:05.225Z,29.46
2018-08-09T08:58:32.408Z,29.45
2018-08-09T09:00:59.818Z,29.42
2018-08-09T09:03:27.053Z,29.47
2018-08-09T09:05:54.372Z,29.67
2018-08-09T09:08:21.615Z,29.87
2018-08-09T09:10:52.933Z,29.79
2018-08-09T09:13:20.250Z,30.27
2018-08-09T09:15:47.520Z,30.41
2018-08-09T09:18:14.796Z,30.60
2018-08-09T09:20:42.081Z,30.77
2018-08-09T09:23:09.371Z,30.84
2018-08-09T09:25:36.645Z,30.72
2018-08-09T09:28:03.874Z,30.76
2018-08-09T09:30:31.129Z,30.94
2018-08-09T09:32:58.369Z,30.97
2018-08-09T09:35:25.536Z,31.03
2018-08-09T09:37:52.751Z,31.01
2018-08-09T09:40:19.966Z,31.08
2018-08-09T09:42:47.149Z,31.34
2018-08-09T09:45:14.447Z,31.24
2018-08-09T09:47:41.704Z,31.02
2018-08-09T09:50:09.813Z,31.25
2018-08-09T09:52:37.113Z,31.74
2018-08-09T09:55:04.733Z,31.61
2018-08-09T09:57:32.022Z,31.51
2018-08-09T09:59:59.252Z,31.63
2018-08-09T10:02:26.498Z,31.85
2018-08-09T10:04:53.691Z,31.72
2018-08-09T10:07:20.953Z,31.44
2018-08-09T10:09:48.177Z,31.86
2018-08-09T10:12:15.405Z,32.24
2018-08-09T10:14:42.773Z,32.56
2018-08-09T10:17:09.998Z,32.48
2018-08-09T10:19:37.234Z,32.20
2018-08-09T10:22:04.462Z,32.47
2018-08-09T10:24:31.900Z,32.76
2018-08-09T10:26:59.204Z,32.70
2018-08-09T10:29:26.452Z,32.73
2018-08-09T10:31:53.664Z,32.70
2018-08-09T10:34:21.018Z,32.69
2018-08-09T10:36:48.258Z,32.69
2018-08-09T10:39:15.461Z,32.56
2018-08-09T10:41:42.898Z,32.21
2018-08-09T10:44:10.309Z,32.71
2018-08-09T10:46:37.655Z,32.86
2018-08-09T10:49:06.128Z,33.03
2018-08-09T10:51:33.425Z,32.59
2018-08-09T10:54:00.730Z,32.82
2018-08-09T10:56:28.090Z,33.05
2018-08-09T10:58:55.340Z,33.01
2018-08-09T11:01:22.668Z,33.05
2018-08-09T11:03:50.086Z,33.65
2018-08-09T11:06:17.390Z,33.74
2018-08-09T11:08:44.664Z,33.21
2018-08-09T11:11:13.228Z,32.91
2018-08-09T11:13:42.311Z,33.18
2018-08-09T11:16:09.776Z,33.26
2018-08-09T11:18:37.051Z,33.58
2018-08-09T11:21:04.297Z,33.64
2018-08-09T11:23:31.821Z,33.86
2018-08-09T11:25:59.196Z,33.77
2018-08-09T11:28:26.429Z,33.66
2018-08-09T11:30:53.780Z,34.07
2018-08-09T11:33:21.205Z,33.91
2018-08-09T11:35:48.531Z,33.82
2018-08-09T11:38:15.884Z,34.31
2018-08-09T11:40:43.276Z,34.39
2018-08-09T11:43:11.696Z,34.84
2018-08-09T11:45:39.002Z,34.46
2018-08-09T11:48:06.504Z,34.50
2018-08-09T11:50:33.876Z,34.72
2018-08-09T11:53:01.158Z,34.92
2018-08-09T11:55:28.417Z,34.66
2018-08-09T11:57:55.693Z,35.00
2018-08-09T12:00:23.002Z,35.18
2018-08-09T12:02:50.300Z,35.18
2018-08-09T12:05:17.648Z,35.22
2018-08-09T12:07:45.093Z,35.50
2018-08-09T12:10:12.518Z,35.69
2018-08-09T12:12:40.048Z,35.81
2018-08-09T12:15:07.448Z,36.13
2018-08-09T12:17:34.880Z,36.31
2018-08-09T12:20:02.318Z,36.20
2018-08-09T12:22:29.938Z,36.53
2018-08-09T12:24:57.334Z,36.13
2018-08-09T12:27:24.764Z,36.16
2018-08-09T12:29:52.191Z,36.35
2018-08-09T12:32:19.699Z,36.66
2018-08-09T12:34:47.044Z,36.32
2018-08-09T12:37:14.443Z,36.08
2018-08-09T12:39:42.066Z,36.33
2018-08-09T12:42:09.633Z,36.81
2018-08-09T12:44:37.180Z,36.84
2018-08-09T12:47:04.753Z,36.99
2018-08-09T12:49:32.072Z,36.93
2018-08-09T12:51:59.496Z,36.37
2018-08-09T12:54:26.879Z,36.59
2018-08-09T12:56:54.230Z,36.41
2018-08-09T12:59:21.817Z,36.15
2018-08-09T13:01:49.268Z,36.89
2018-08-09T13:04:16.722Z,36.63
2018-08-09T13:06:44.148Z,36.38
2018-08-09T13:09:11.886Z,36.51
2018-08-09T13:11:39.410Z,37.11
2018-08-09T13:14:06.852Z,37.06
2018-08-09T13:16:34.342Z,36.85
2018-08-09T13:19:01.749Z,36.96
2018-08-09T13:21:29.290Z,37.11
2018-08-09T13:23:56.669Z,36.92
2018-08-09T13:26:24.083Z,37.25
2018-08-09T13:28:51.526Z,37.05
2018-08-09T13:31:18.914Z,36.41
2018-08-09T13:33:46.235Z,36.26
2018-08-09T13:36:13.609Z,36.71
2018-08-09T13:38:40.958Z,36.72
2018-08-09T13:41:08.295Z,37.41
2018-08-09T13:43:35.774Z,37.09
2018-08-09T13:46:03.226Z,37.18
2018-08-09T13:48:30.568Z,37.45
2018-08-09T13:50:58.701Z,37.47
2018-08-09T13:53:26.230Z,38.28
2018-08-09T13:55:53.584Z,37.62
2018-08-09T13:58:21.013Z,37.11
2018-08-09T14:00:48.321Z,36.29
2018-08-09T14:03:15.691Z,36.97
2018-08-09T14:05:43.138Z,37.13
2018-08-09T14:08:10.487Z,37.55
2018-08-09T14:10:37.936Z,37.95
2018-08-09T14:13:05.485Z,37.73
2018-08-09T14:15:32.925Z,37.61
2018-08-09T14:18:00.295Z,36.99
2018-08-09T14:20:27.614Z,37.28
2018-08-09T14:22:54.993Z,37.45
2018-08-09T14:25:22.519Z,37.94
2018-08-09T14:27:49.940Z,37.85
2018-08-09T14:30:17.359Z,37.95
2018-08-09T14:32:45.145Z,37.32
2018-08-09T14:35:14.172Z,37.12
2018-08-09T14:37:42.503Z,37.02
2018-08-09T14:40:10.735Z,37.66
2018-08-09T14:42:38.163Z,37.90
2018-08-09T14:45:09.906Z,37.87
2018-08-09T14:47:37.419Z,37.55
2018-08-09T14:50:05.359Z,36.99
2018-08-09T14:52:32.895Z,36.83
2018-08-09T14:55:00.416Z,37.05
2018-08-09T14:57:27.961Z,36.99
2018-08-09T14:59:55.488Z,37.59
2018-08-09T15:02:22.938Z,37.57
2018-08-09T15:04:50.287Z,37.79
2018-08-09T15:07:17.686Z,37.97
2018-08-09T15:09:45.177Z,38.15
2018-08-09T15:12:12.627Z,38.14
2018-08-09T15:14:40.041Z,38.30
2018-08-09T15:17:07.564Z,37.30
2018-08-09T15:19:34.980Z,37.20
2018-08-09T15:22:02.371Z,37.82
2018-08-09T15:24:29.928Z,38.02
2018-08-09T15:26:57.305Z,38.01
2018-08-09T15:29:24.668Z,37.52
2018-08-09T15:31:52.004Z,37.46
2018-08-09T15:34:19.421Z,36.91
2018-08-09T15:36:46.748Z,37.02
2018-08-09T15:39:14.293Z,36.56
2018-08-09T15:41:42.400Z,37.10
2018-08-09T15:44:10.484Z,37.71
2018-08-09T15:46:37.895Z,37.26
2018-08-09T15:49:05.334Z,36.67
2018-08-09T15:51:32.762Z,37.42
2018-08-09T15:54:00.196Z,37.89
2018-08-09T15:56:27.663Z,38.34
2018-08-09T15:58:55.150Z,38.76
2018-08-09T16:01:22.683Z,38.52
2018-08-09T16:03:50.268Z,37.20
2018-08-09T16:06:17.715Z,36.11
2018-08-09T16:08:45.357Z,35.51
2018-08-09T16:11:12.800Z,35.02
2018-08-09T16:13:40.220Z,34.81
2018-08-09T16:16:07.776Z,34.97
2018-08-09T16:18:35.063Z,35.64
2018-08-09T16:21:02.539Z,36.03
2018-08-09T16:23:29.910Z,35.56
2018-08-09T16:25:57.353Z,35.22
2018-08-09T16:28:24.651Z,34.81
2018-08-09T16:30:52.197Z,34.83
2018-08-09T16:33:19.725Z,34.48
2018-08-09T16:35:47.181Z,34.22
2018-08-09T16:38:14.690Z,34.20
2018-08-09T16:40:42.410Z,33.98
2018-08-09T16:43:10.015Z,33.94
2018-08-09T16:48:16.912Z,34.00
2018-08-09T16:50:44.149Z,33.93
2018-08-09T16:53:11.324Z,33.81
2018-08-09T16:55:38.616Z,33.69
2018-08-09T16:58:05.769Z,33.40
2018-08-09T17:00:33.019Z,32.24
2018-08-09T17:03:00.198Z,31.35
2018-08-09T17:05:27.752Z,30.34
2018-08-09T17:07:54.928Z,30.01
2018-08-09T17:10:23.168Z,29.13
2018-08-09T17:12:50.418Z,28.50
2018-08-09T17:28:17.892Z,28.80
2018-08-09T17:30:45.082Z,27.83
2018-08-09T17:33:12.304Z,27.97
2018-08-09T17:35:39.476Z,27.49
2018-08-09T17:38:06.684Z,27.49
2018-08-09T17:40:34.140Z,27.75
2018-08-09T17:43:02.247Z,27.87
2018-08-09T17:45:31.066Z,27.83
2018-08-09T17:47:58.597Z,27.63
2018-08-09T17:50:25.827Z,27.72
2018-08-09T17:52:54.161Z,28.00
2018-08-09T17:55:21.344Z,27.54
2018-08-09T18:00:24.559Z,27.06
2018-08-09T18:02:52.257Z,26.80
2018-08-09T18:05:19.432Z,26.80
2018-08-09T18:07:46.661Z,26.92
2018-08-09T18:10:16.477Z,27.07
2018-08-09T18:12:43.735Z,26.80
2018-08-09T18:15:10.927Z,27.02
2018-08-09T18:17:38.822Z,26.51
2018-08-09T18:20:10.586Z,26.42
2018-08-09T18:22:37.911Z,26.68
2018-08-09T18:25:07.334Z,26.64
2018-08-09T18:27:34.522Z,26.29
2018-08-09T18:30:01.752Z,26.36
2018-08-09T18:32:28.925Z,26.54
2018-08-09T18:34:56.243Z,26.40
2018-08-09T18:37:23.400Z,26.27
2018-08-09T18:39:50.891Z,26.42
2018-08-09T18:42:18.162Z,26.39
2018-08-09T18:44:45.466Z,26.42
2018-08-09T18:47:12.721Z,26.30
2018-08-09T18:49:39.974Z,26.32
2018-08-09T18:52:07.183Z,26.19
2018-08-09T18:54:34.368Z,26.05
2018-08-09T18:57:01.565Z,25.79
2018-08-09T18:59:28.877Z,25.82
2018-08-09T19:01:56.136Z,25.64
2018-08-09T19:04:23.385Z,25.71
2018-08-09T19:06:50.660Z,25.62
2018-08-09T19:09:17.930Z,25.51
2018-08-09T19:11:45.197Z,25.68
2018-08-09T19:14:12.376Z,25.79
2018-08-09T19:16:39.574Z,25.64
2018-08-09T19:19:06.829Z,25.64
2018-08-09T19:21:34.093Z,25.87
2018-08-09T19:24:01.307Z,25.99
2018-08-09T19:26:28.561Z,25.67
2018-08-09T19:28:55.921Z,25.62
2018-08-09T19:31:23.799Z,25.61
2018-08-09T19:33:50.961Z,25.76
2018-08-09T19:36:18.235Z,25.87
2018-08-09T19:38:45.553Z,25.70
2018-08-09T19:41:12.907Z,25.51
2018-08-09T19:43:40.080Z,25.22
2018-08-09T19:46:07.296Z,24.93
2018-08-09T19:48:35.794Z,25.09
2018-08-09T19:51:03.041Z,25.05
2018-08-09T19:53:30.242Z,24.75
2018-08-09T19:55:57.449Z,24.65
2018-08-09T19:58:24.755Z,24.53
2018-08-09T20:00:51.997Z,24.35
2018-08-09T20:03:19.248Z,24.30
2018-08-09T20:05:46.382Z,24.14
2018-08-09T20:08:13.549Z,24.30
2018-08-09T20:10:40.769Z,24.54
2018-08-09T20:13:07.929Z,24.32
2018-08-09T20:15:35.112Z,24.51
2018-08-09T20:18:02.310Z,24.07
2018-08-09T20:20:29.594Z,24.07
2018-08-09T20:22:56.855Z,24.34
2018-08-09T20:25:24.064Z,24.17
2018-08-09T20:27:51.293Z,24.47
2018-08-09T20:30:18.988Z,24.34
2018-08-09T20:32:46.611Z,24.34
2018-08-09T20:35:15.359Z,24.09
2018-08-09T20:37:43.601Z,24.18
2018-08-09T20:40:11.562Z,24.04
2018-08-09T20:42:39.222Z,24.01
2018-08-09T20:45:07.920Z,23.92
2018-08-09T20:47:35.372Z,24.04
2018-08-09T20:50:02.916Z,23.64
2018-08-09T20:52:30.095Z,23.78
2018-08-09T20:54:57.331Z,23.68
2018-08-09T20:57:24.551Z,23.44
2018-08-09T20:59:51.872Z,23.42
2018-08-09T21:02:19.114Z,23.56
2018-08-09T21:04:46.281Z,23.65
2018-08-09T21:07:13.450Z,23.97
2018-08-09T21:09:40.644Z,24.04
2018-08-09T21:12:07.836Z,23.91
2018-08-09T21:14:35.116Z,23.83
2018-08-09T21:17:02.352Z,24.06
2018-08-09T21:19:29.568Z,23.48
2018-08-09T21:21:56.888Z,23.40
2018-08-09T21:24:24.197Z,23.77
2018-08-09T21:26:51.401Z,23.79
2018-08-09T21:29:18.597Z,23.81
2018-08-09T21:31:45.868Z,23.26
2018-08-09T21:34:13.093Z,23.07
2018-08-09T21:36:40.273Z,23.27
2018-08-09T21:39:09.039Z,23.12
2018-08-09T21:41:36.263Z,23.47
2018-08-09T21:44:03.544Z,23.53
2018-08-09T21:46:30.704Z,23.67
2018-08-09T21:48:57.977Z,23.62
2018-08-09T21:51:25.339Z,23.59
2018-08-09T21:53:52.420Z,23.52
2018-08-09T21:56:19.566Z,23.43
2018-08-09T21:58:46.707Z,23.25
2018-08-09T22:01:14.021Z,23.28
2018-08-09T22:03:41.477Z,23.34
2018-08-09T22:06:14.348Z,23.43
2018-08-09T22:08:47.225Z,23.36
2018-08-09T22:11:20.009Z,23.18
2018-08-09T22:13:52.876Z,23.30
2018-08-09T22:16:25.865Z,23.17
2018-08-09T22:18:58.595Z,23.27
2018-08-09T22:21:31.465Z,23.24
2018-08-09T22:23:58.632Z,23.23
2018-08-09T22:26:25.785Z,23.17
2018-08-09T22:28:53.265Z,22.93
2018-08-09T22:31:20.513Z,23.14
2018-08-09T22:33:47.652Z,23.13
2018-08-09T22:36:14.926Z,23.02
2018-08-09T22:38:42.115Z,23.06
2018-08-09T22:41:09.447Z,23.08
2018-08-09T22:43:36.868Z,23.07
2018-08-09T22:46:04.376Z,23.09
2018-08-09T22:48:31.697Z,23.00
2018-08-09T22:50:58.873Z,23.03
2018-08-09T22:53:26.090Z,23.04
2018-08-09T22:55:53.400Z,22.99
2018-08-09T22:58:20.632Z,23.06
2018-08-09T23:00:47.871Z,22.97
2018-08-09T23:03:15.083Z,22.92
2018-08-09T23:05:42.241Z,22.88
2018-08-09T23:08:10.726Z,22.92
2018-08-09T23:10:38.588Z,22.97
2018-08-09T23:13:06.068Z,22.99
2018-08-09T23:15:33.240Z,22.98
2018-08-09T23:18:00.385Z,23.04
2018-08-09T23:20:27.556Z,23.07
2018-08-09T23:22:54.763Z,23.05
2018-08-09T23:25:21.891Z,23.02
2018-08-09T23:27:49.053Z,23.02
2018-08-09T23:30:16.236Z,23.05
2018-08-09T23:32:43.380Z,23.12
2018-08-09T23:35:10.970Z,22.98
2018-08-09T23:37:38.200Z,22.98
2018-08-09T23:40:07.521Z,23.13
2018-08-09T23:42:35.850Z,23.10
2018-08-09T23:45:03.518Z,23.01
2018-08-09T23:47:30.781Z,23.05
2018-08-09T23:49:57.953Z,22.95
2018-08-09T23:52:25.150Z,22.93
2018-08-09T23:54:52.332Z,22.87
2018-08-09T23:57:19.441Z,22.78
2018-08-09T23:59:46.689Z,22.66
